createdAt,value
2022-08-05T00:02:34.328Z,97087.72
2022-08-05T00:06:04.960Z,97092.03
2022-08-05T00:09:01.764Z,97087.22
2022-08-05T00:12:05.317Z,97086.13
2022-08-05T00:15:56.451Z,97086.69
2022-08-05T00:18:39.049Z,97079.72
2022-08-05T00:21:42.641Z,97081.34
2022-08-05T00:24:46.922Z,97082.19
2022-08-05T00:27:57.991Z,97081.94
2022-08-05T00:31:02.741Z,97075.25
2022-08-05T00:34:55.793Z,97076.09
2022-08-05T00:37:51.018Z,97078.81
2022-08-05T00:40:57.408Z,97074.53
2022-08-05T00:44:00.395Z,97076.66
2022-08-05T00:47:04.079Z,97071.28
2022-08-05T00:50:09.698Z,97077.75
2022-08-05T00:54:00.820Z,97079.94
2022-08-05T00:56:36.794Z,97073.19
2022-08-05T00:59:44.172Z,97071.06
2022-08-05T01:02:47.509Z,97063.25
2022-08-05T01:05:54.800Z,97068.63
2022-08-05T01:08:57.854Z,97070.53
2022-08-05T01:12:17.982Z,97065.97
2022-08-05T01:15:36.241Z,97065.97
2022-08-05T01:18:48.104Z,97067.06
2022-08-05T01:22:28.090Z,97065.47
2022-08-05T01:25:53.209Z,97061.47
2022-08-05T01:29:04.312Z,97055.81
2022-08-05T01:32:18.452Z,97060.13
2022-08-05T01:35:51.940Z,97049.91
2022-08-05T01:38:51.655Z,97052.63
2022-08-05T01:41:56.885Z,97053.16
2022-08-05T01:45:03.204Z,97052.88
2022-08-05T01:48:10.225Z,97048.88
2022-08-05T01:51:15.743Z,97043.25
2022-08-05T01:54:23.642Z,97044.06
2022-08-05T01:58:10.808Z,97043.78
2022-08-05T02:00:58.955Z,97045.13
2022-08-05T02:04:04.085Z,97038.13
2022-08-05T02:07:07.009Z,97039.19
2022-08-05T02:10:11.314Z,97046.72
2022-08-05T02:13:25.765Z,97038.66
2022-08-05T02:16:35.656Z,97045.97
2022-08-05T02:19:47.665Z,97042.47
2022-08-05T02:22:57.720Z,97048.66
2022-08-05T02:26:03.986Z,97047.31
2022-08-05T02:29:09.239Z,97048.13
2022-08-05T02:32:31.440Z,97047.31
2022-08-05T02:35:37.473Z,97044.09
2022-08-05T02:38:43.247Z,97048.94
2022-08-05T02:42:00.739Z,97048.94
2022-08-05T02:45:05.520Z,97046.25
2022-08-05T02:48:12.954Z,97042.47
2022-08-05T02:51:18.370Z,97044.34
2022-08-05T02:54:35.668Z,97042.97
2022-08-05T02:58:11.718Z,97035.44
2022-08-05T03:01:05.012Z,97040.28
2022-08-05T03:04:14.305Z,97038.94
2022-08-05T03:07:40.496Z,97045.66
2022-08-05T03:10:43.865Z,97036.25
2022-08-05T03:14:07.991Z,97046.13
2022-08-05T03:17:11.059Z,97049.00
2022-08-05T03:20:15.254Z,97048.28
2022-08-05T03:23:18.371Z,97047.84
2022-08-05T03:26:31.866Z,97048.31
2022-08-05T03:29:45.473Z,97045.81
2022-08-05T03:32:59.465Z,97047.44
2022-08-05T03:36:03.718Z,97051.22
2022-08-05T03:39:13.070Z,97038.13
2022-08-05T03:42:23.135Z,97039.44
2022-08-05T03:45:29.943Z,97035.13
2022-08-05T03:48:52.823Z,97031.09
2022-08-05T03:52:37.444Z,97028.72
2022-08-05T03:56:09.532Z,97030.88
2022-08-05T03:58:54.667Z,97030.19
2022-08-05T04:01:59.709Z,97035.88
2022-08-05T04:05:04.056Z,97037.34
2022-08-05T04:08:29.700Z,97035.19
2022-08-05T04:11:47.463Z,97036.38
2022-08-05T04:14:54.014Z,97042.91
2022-08-05T04:18:03.272Z,97046.38
2022-08-05T04:21:10.908Z,97037.88
2022-08-05T04:24:19.545Z,97034.94
2022-08-05T04:27:33.036Z,97041.69
2022-08-05T04:30:45.078Z,97036.03
2022-08-05T04:34:18.207Z,97041.38
2022-08-05T04:37:11.461Z,97046.22
2022-08-05T04:40:19.519Z,97054.03
2022-08-05T04:43:22.540Z,97062.97
2022-08-05T04:46:28.809Z,97050.72
2022-08-05T04:50:01.057Z,97043.22
2022-08-05T04:52:54.334Z,97047.25
2022-08-05T04:56:33.245Z,97055.31
2022-08-05T04:59:33.570Z,97040.84
2022-08-05T05:02:43.271Z,97061.31
2022-08-05T05:06:35.842Z,97071.44
2022-08-05T05:09:09.849Z,97150.34
2022-08-05T05:12:18.062Z,97161.31
2022-08-05T05:15:57.895Z,97130.56
2022-08-05T05:19:09.052Z,97177.50
2022-08-05T05:22:23.077Z,97157.28
2022-08-05T05:25:32.965Z,97186.25
2022-08-05T05:28:45.368Z,97160.16
2022-08-05T05:31:48.248Z,97176.38
2022-08-05T05:34:52.468Z,97179.31
2022-08-05T05:38:00.088Z,97181.06
2022-08-05T05:41:04.182Z,97183.19
2022-08-05T05:44:35.938Z,97205.50
2022-08-05T05:48:07.028Z,97202.72
2022-08-05T05:50:58.981Z,97218.22
2022-08-05T05:54:18.089Z,97213.47
2022-08-05T05:57:22.629Z,97216.16
2022-08-05T06:00:31.391Z,97222.16
2022-08-05T06:03:53.649Z,97222.38
2022-08-05T06:06:57.365Z,97220.69
2022-08-05T06:10:09.728Z,97233.19
2022-08-05T06:13:13.537Z,97234.75
2022-08-05T06:16:29.970Z,97232.16
2022-08-05T06:19:35.795Z,97222.56
2022-08-05T06:22:41.358Z,97209.53
2022-08-05T06:26:12.644Z,97214.25
2022-08-05T06:29:43.007Z,97210.00
2022-08-05T06:32:32.551Z,97214.38
2022-08-05T06:36:07.184Z,97219.97
2022-08-05T06:38:58.908Z,97223.03
2022-08-05T06:42:04.105Z,97225.84
2022-08-05T06:45:09.186Z,97230.00
2022-08-05T06:48:52.871Z,97239.28
2022-08-05T06:51:36.629Z,97246.41
2022-08-05T06:54:43.714Z,97268.19
2022-08-05T06:57:57.444Z,97281.16
2022-08-05T07:01:07.702Z,97279.78
2022-08-05T07:04:13.903Z,97278.22
2022-08-05T07:07:17.177Z,97278.81
2022-08-05T07:10:38.485Z,97295.78
2022-08-05T07:13:59.913Z,97296.53
2022-08-05T07:17:57.118Z,97308.06
2022-08-05T07:20:33.358Z,97303.41
2022-08-05T07:23:37.459Z,97299.78
2022-08-05T07:26:52.932Z,97306.28
2022-08-05T07:30:24.440Z,97306.94
2022-08-05T07:33:35.268Z,97295.41
2022-08-05T07:36:41.966Z,97262.13
2022-08-05T07:40:08.397Z,97278.78
2022-08-05T07:43:14.600Z,97306.16
2022-08-05T07:46:25.541Z,97310.72
2022-08-05T07:49:28.657Z,97305.25
2022-08-05T07:52:32.796Z,97305.28
2022-08-05T07:55:44.303Z,97302.69
2022-08-05T07:58:59.370Z,97311.81
2022-08-05T08:02:03.195Z,97294.03
2022-08-05T08:05:07.029Z,97314.56
2022-08-05T08:08:12.405Z,97320.47
2022-08-05T08:11:15.906Z,97317.34
2022-08-05T08:14:19.248Z,97322.19
2022-08-05T08:17:22.651Z,97320.06
2022-08-05T08:21:00.235Z,97330.34
2022-08-05T08:24:02.841Z,97333.03
2022-08-05T08:27:08.543Z,97335.75
2022-08-05T08:30:28.479Z,97337.94
2022-08-05T08:33:37.860Z,97332.28
2022-08-05T08:36:48.810Z,97334.66
2022-08-05T08:39:59.086Z,97337.91
2022-08-05T08:43:20.940Z,97338.47
2022-08-05T08:46:29.167Z,97343.03
2022-08-05T08:50:23.196Z,97332.53
2022-08-05T08:53:11.864Z,97327.66
2022-08-05T08:56:17.418Z,97328.16
2022-08-05T08:59:21.600Z,97343.81
2022-08-05T09:02:30.446Z,97332.47
2022-08-05T09:05:38.334Z,97323.06
2022-08-05T09:08:41.975Z,97319.47
2022-08-05T09:11:51.911Z,97317.03
2022-08-05T09:15:06.411Z,97320.22
2022-08-05T09:18:13.500Z,97317.16
2022-08-05T09:21:20.610Z,97316.34
2022-08-05T09:24:39.248Z,97298.16
2022-08-05T09:28:04.245Z,97302.81
2022-08-05T09:31:22.366Z,97301.44
2022-08-05T09:34:47.797Z,97315.69
2022-08-05T09:38:12.174Z,97317.72
2022-08-05T09:41:16.098Z,97320.69
2022-08-05T09:44:34.156Z,97314.88
2022-08-05T09:47:55.197Z,97309.91
2022-08-05T09:51:01.244Z,97303.41
2022-08-05T09:54:06.876Z,97306.72
2022-08-05T09:57:20.812Z,97316.66
2022-08-05T10:00:30.586Z,97303.09
2022-08-05T10:03:56.687Z,97311.34
2022-08-05T10:06:59.094Z,97305.53
2022-08-05T10:10:15.265Z,97290.31
2022-08-05T10:13:31.670Z,97299.41
2022-08-05T10:16:52.823Z,97299.47
2022-08-05T10:20:03.718Z,97296.47
2022-08-05T10:23:34.209Z,97295.44
2022-08-05T10:26:37.770Z,97292.00
2022-08-05T10:30:07.071Z,97294.53
2022-08-05T10:33:18.675Z,97295.63
2022-08-05T10:36:23.669Z,97298.47
2022-08-05T10:40:03.420Z,97293.53
2022-08-05T10:43:00.765Z,97291.41
2022-08-05T10:46:06.353Z,97277.88
2022-08-05T10:49:16.858Z,97265.66
2022-08-05T10:52:47.041Z,97271.94
2022-08-05T10:56:14.675Z,97276.00
2022-08-05T11:00:03.523Z,97273.88
2022-08-05T11:03:24.501Z,97277.66
2022-08-05T11:06:31.277Z,97277.38
2022-08-05T11:09:46.469Z,97272.34
2022-08-05T11:12:50.538Z,97275.53
2022-08-05T11:16:47.928Z,97263.72
2022-08-05T11:20:10.111Z,97266.69
2022-08-05T11:24:02.765Z,97266.94
2022-08-05T11:27:45.796Z,97258.16
2022-08-05T11:31:54.519Z,97255.78
2022-08-05T11:34:51.144Z,97253.78
2022-08-05T11:38:30.747Z,97256.47
2022-08-05T11:41:56.430Z,97257.41
2022-08-05T11:45:01.817Z,97256.09
2022-08-05T11:48:09.612Z,97260.72
2022-08-05T11:51:44.684Z,97261.41
2022-08-05T11:54:40.628Z,97257.56
2022-08-05T11:58:10.861Z,97242.91
2022-08-05T12:01:12.321Z,97244.44
2022-08-05T12:04:22.288Z,97249.50
2022-08-05T12:08:07.899Z,97243.16
2022-08-05T12:10:50.629Z,97239.75
2022-08-05T12:13:58.569Z,97231.69
2022-08-05T12:18:00.723Z,97232.09
2022-08-05T12:20:33.520Z,97229.50
2022-08-05T12:23:36.710Z,97235.44
2022-08-05T12:26:48.481Z,97237.53
2022-08-05T12:30:05.107Z,97241.56
2022-08-05T12:33:27.622Z,97242.59
2022-08-05T12:36:31.883Z,97243.16
2022-08-05T12:39:38.550Z,97244.75
2022-08-05T12:42:41.806Z,97241.97
2022-08-05T12:45:56.557Z,97237.94
2022-08-05T12:49:01.041Z,97232.91
2022-08-05T12:52:24.011Z,97215.19
2022-08-05T12:55:33.073Z,97209.94
2022-08-05T12:58:53.844Z,97214.03
2022-08-05T13:02:06.812Z,97219.66
2022-08-05T13:05:12.728Z,97203.06
2022-08-05T13:08:19.527Z,97214.03
2022-08-05T13:11:25.565Z,97203.91
2022-08-05T13:15:05.112Z,97205.16
2022-08-05T13:18:10.612Z,97199.78
2022-08-05T13:21:13.592Z,97200.94
2022-08-05T13:24:27.809Z,97206.13
2022-08-05T13:27:43.007Z,97194.13
2022-08-05T13:30:45.803Z,97192.59
2022-08-05T13:34:25.043Z,97194.41
2022-08-05T13:37:16.259Z,97196.34
2022-08-05T13:40:51.487Z,97180.13
2022-08-05T13:43:55.461Z,97181.50
2022-08-05T13:47:04.592Z,97179.44
2022-08-05T13:50:16.678Z,97176.84
2022-08-05T13:53:20.042Z,97177.63
2022-08-05T13:56:22.893Z,97174.13
2022-08-05T13:59:26.935Z,97170.25
2022-08-05T14:02:31.313Z,97169.34
2022-08-05T14:06:24.347Z,97170.22
2022-08-05T14:08:59.567Z,97179.34
2022-08-05T14:12:17.240Z,97180.25
2022-08-05T14:16:09.044Z,97182.00
2022-08-05T14:18:43.963Z,97187.41
2022-08-05T14:22:08.737Z,97181.44
2022-08-05T14:25:21.858Z,97177.44
2022-08-05T14:28:26.861Z,97173.16
2022-08-05T14:31:54.589Z,97170.81
2022-08-05T14:34:53.004Z,97187.03
2022-08-05T14:37:59.500Z,97192.84
2022-08-05T14:41:06.788Z,97193.75
2022-08-05T14:44:20.005Z,97196.38
2022-08-05T14:48:04.270Z,97194.53
2022-08-05T14:50:46.353Z,97188.25
2022-08-05T14:54:26.152Z,97191.16
2022-08-05T14:57:13.710Z,97186.72
2022-08-05T15:00:16.845Z,97195.53
2022-08-05T15:03:22.969Z,97202.19
2022-08-05T15:06:27.888Z,97193.00
2022-08-05T15:09:52.680Z,97206.38
2022-08-05T15:13:03.777Z,97202.47
2022-08-05T15:16:07.665Z,97206.56
2022-08-05T15:19:23.832Z,97217.25
2022-08-05T15:22:28.482Z,97214.97
2022-08-05T15:25:41.137Z,97220.28
2022-08-05T15:28:54.655Z,97222.81
2022-08-05T15:31:57.453Z,97218.75
2022-08-05T15:35:10.766Z,97228.06
2022-08-05T15:38:35.528Z,97227.91
2022-08-05T15:41:56.299Z,97236.75
2022-08-05T15:45:01.874Z,97238.06
2022-08-05T15:48:05.612Z,97238.97
2022-08-05T15:51:09.900Z,97242.38
2022-08-05T15:54:15.063Z,97244.97
2022-08-05T15:57:19.830Z,97253.81
2022-08-05T16:00:32.598Z,97259.44
2022-08-05T16:03:48.482Z,97255.81
2022-08-05T16:06:51.774Z,97263.06
2022-08-05T16:09:55.284Z,97258.88
2022-08-05T16:12:59.370Z,97262.69
2022-08-05T16:16:02.162Z,97261.81
2022-08-05T16:19:06.721Z,97255.91
2022-08-05T16:22:13.273Z,97253.03
2022-08-05T16:25:16.303Z,97266.09
2022-08-05T16:28:20.377Z,97265.09
2022-08-05T16:31:27.029Z,97271.59
2022-08-05T16:34:50.912Z,97273.41
2022-08-05T16:38:15.523Z,97289.84
2022-08-05T16:41:29.762Z,97296.03
2022-08-05T16:44:41.971Z,97299.53
2022-08-05T16:47:55.575Z,97311.53
2022-08-05T16:51:00.286Z,97318.72
2022-08-05T16:54:16.060Z,97323.56
2022-08-05T16:57:49.477Z,97331.31
2022-08-05T17:00:49.516Z,97338.72
2022-08-05T17:03:52.852Z,97333.00
2022-08-05T17:07:00.497Z,97347.91
2022-08-05T17:10:03.864Z,97361.25
2022-08-05T17:13:16.686Z,97364.00
2022-08-05T17:16:32.956Z,97382.63
2022-08-05T17:19:36.725Z,97392.59
2022-08-05T17:22:39.455Z,97384.94
2022-08-05T17:25:42.901Z,97387.09
2022-08-05T17:28:47.183Z,97405.75
2022-08-05T17:31:58.544Z,97408.78
2022-08-05T17:35:02.190Z,97414.97
2022-08-05T17:41:22.948Z,97430.94
2022-08-05T17:44:33.856Z,97451.13
2022-08-05T17:47:39.789Z,97466.56
2022-08-05T17:50:42.655Z,97479.59
2022-08-05T17:53:45.944Z,97494.25
2022-08-05T17:56:57.150Z,97501.16
2022-08-05T18:00:05.442Z,97513.47
2022-08-05T18:03:10.247Z,97519.91
2022-08-05T18:06:15.133Z,97523.69
2022-08-05T18:09:18.722Z,97518.81
2022-08-05T18:12:24.271Z,97525.78
2022-08-05T18:15:27.772Z,97534.41
2022-08-05T18:18:39.848Z,97533.28
2022-08-05T18:22:08.963Z,97536.03
2022-08-05T18:25:06.315Z,97560.81
2022-08-05T18:28:09.842Z,97573.38
2022-08-05T18:31:12.709Z,97575.38
2022-08-05T18:34:21.735Z,97587.09
2022-08-05T18:37:33.504Z,97599.53
2022-08-05T18:41:56.358Z,97610.94
2022-08-05T18:44:05.498Z,97624.44
2022-08-05T18:47:09.349Z,97624.41
2022-08-05T18:50:45.069Z,97629.66
2022-08-05T18:53:50.452Z,97648.94
2022-08-05T18:56:53.425Z,97644.28
2022-08-05T19:00:03.493Z,97648.34
2022-08-05T19:03:06.965Z,97671.03
2022-08-05T19:06:22.143Z,97673.06
2022-08-05T19:09:40.112Z,97660.31
2022-08-05T19:12:43.448Z,97677.19
2022-08-05T19:15:59.109Z,97677.75
2022-08-05T19:19:03.879Z,97693.66
2022-08-05T19:22:09.008Z,97689.38
2022-08-05T19:25:21.650Z,97698.19
2022-08-05T19:28:33.856Z,97697.41
2022-08-05T19:31:44.776Z,97704.72
2022-08-05T19:34:54.685Z,97710.63
2022-08-05T19:38:05.960Z,97718.00
2022-08-05T19:41:09.713Z,97729.75
2022-08-05T19:44:14.109Z,97719.38
2022-08-05T19:47:17.536Z,97719.38
2022-08-05T19:50:21.043Z,97730.00
2022-08-05T19:54:04.243Z,97724.91
2022-08-05T19:56:52.258Z,97729.38
2022-08-05T20:00:02.462Z,97739.56
2022-08-05T20:03:14.345Z,97735.19
2022-08-05T20:06:23.386Z,97740.91
2022-08-05T20:09:53.679Z,97758.63
2022-08-05T20:12:56.248Z,97764.63
2022-08-05T20:15:59.772Z,97767.81
2022-08-05T20:19:03.162Z,97763.81
2022-08-05T20:22:06.346Z,97766.28
2022-08-05T20:25:13.810Z,97769.31
2022-08-05T20:28:16.603Z,97761.00
2022-08-05T20:31:21.534Z,97768.09
2022-08-05T20:34:25.958Z,97780.88
2022-08-05T20:38:06.507Z,97816.78
2022-08-05T20:40:53.194Z,97841.53
2022-08-05T20:44:06.048Z,97836.47
2022-08-05T20:47:31.810Z,97841.13
2022-08-05T20:50:37.744Z,97823.03
2022-08-05T20:53:56.977Z,97814.34
2022-08-05T20:57:01.291Z,97822.81
2022-08-05T21:00:20.169Z,97817.94
2022-08-05T21:03:34.541Z,97813.00
2022-08-05T21:06:37.965Z,97820.59
2022-08-05T21:09:53.390Z,97820.25
2022-08-05T21:13:09.020Z,97814.22
2022-08-05T21:16:14.159Z,97828.84
2022-08-05T21:19:16.991Z,97838.78
2022-08-05T21:22:23.903Z,97874.63
2022-08-05T21:25:33.700Z,97907.69
2022-08-05T21:28:40.119Z,97916.34
2022-08-05T21:31:53.201Z,97911.44
2022-08-05T21:35:08.776Z,97900.03
2022-08-05T21:38:21.009Z,97854.13
2022-08-05T21:41:23.822Z,97824.91
2022-08-05T21:44:27.979Z,97808.88
2022-08-05T21:47:55.823Z,97803.25
2022-08-05T21:50:54.448Z,97826.28
2022-08-05T21:53:59.608Z,97843.72
2022-08-05T21:57:30.900Z,97857.03
2022-08-05T22:00:31.266Z,97864.88
2022-08-05T22:03:48.905Z,97892.72
2022-08-05T22:06:57.002Z,97927.06
2022-08-05T22:10:00.134Z,97928.09
2022-08-05T22:14:04.976Z,97956.19
2022-08-05T22:16:50.889Z,97932.06
2022-08-05T22:19:57.174Z,97894.03
2022-08-05T22:23:23.981Z,97881.53
2022-08-05T22:26:49.645Z,97907.34
2022-08-05T22:29:54.263Z,97904.09
2022-08-05T22:32:58.485Z,97935.81
2022-08-05T22:36:01.243Z,97940.72
2022-08-05T22:39:09.471Z,97936.25
2022-08-05T22:42:21.521Z,97917.41
2022-08-05T22:45:30.656Z,97905.50
2022-08-05T22:48:35.421Z,97892.84
2022-08-05T22:52:05.196Z,97879.34
2022-08-05T22:55:01.134Z,97855.63
2022-08-05T22:58:04.230Z,97881.78
2022-08-05T23:01:07.916Z,97902.66
2022-08-05T23:04:12.264Z,97912.06
2022-08-05T23:07:15.175Z,97920.72
2022-08-05T23:10:19.843Z,97912.91
2022-08-05T23:13:23.294Z,97907.19
2022-08-05T23:16:40.266Z,97878.97
2022-08-05T23:19:51.044Z,97883.44
2022-08-05T23:22:59.168Z,97920.91
2022-08-05T23:26:01.941Z,97949.94
2022-08-05T23:29:05.847Z,97961.41
2022-08-05T23:32:12.951Z,97946.25
2022-08-05T23:35:17.954Z,97912.09
2022-08-05T23:38:20.658Z,97908.00
2022-08-05T23:41:23.581Z,97885.28
2022-08-05T23:44:27.854Z,97868.31
2022-08-05T23:47:34.582Z,97853.78
2022-08-05T23:50:52.409Z,97897.81
2022-08-05T23:53:55.147Z,97922.97
2022-08-05T23:57:05.189Z,97933.59
